Time;durP1;ratioP1;P1;durP2;ratioP2;P2;SDS_P1;SDS_P2;PMS_P1;PMS_P2;Temp;Humidity;BMP_temperature;BMP_pressure;BME280_temperature;BME280_humidity;BME280_pressure;Samples;Min_cycle;Max_cycle;Signal;HPM_P1;HPM_P2
2022/08/07 00:00:21;;;;;;;41.20;25.38;;;12.80;99.90;;;;;;8332946;28;20087;-80
2022/08/07 00:04:22;;;;;;;43.80;27.38;;;12.60;99.90;;;;;;8343497;28;20083;-80
2022/08/07 00:08:22;;;;;;;48.40;28.55;;;12.50;99.90;;;;;;8337610;28;20031;-80
2022/08/07 00:12:23;;;;;;;50.65;26.85;;;12.50;99.90;;;;;;8335604;28;20568;-80
2022/08/07 00:16:23;;;;;;;54.58;32.67;;;12.60;99.90;;;;;;8343873;28;20021;-80
2022/08/07 00:20:24;;;;;;;68.05;35.38;;;12.60;99.90;;;;;;8345832;28;20059;-80
2022/08/07 00:24:24;;;;;;;35.67;24.17;;;12.60;99.90;;;;;;8345840;28;20090;-80
2022/08/07 00:28:25;;;;;;;27.23;18.30;;;12.80;99.90;;;;;;8352219;28;20509;-79
2022/08/07 00:32:25;;;;;;;24.40;17.88;;;12.90;99.90;;;;;;8347350;28;20013;-80
2022/08/07 00:36:26;;;;;;;26.38;19.73;;;12.80;99.90;;;;;;8338182;28;20017;-79
2022/08/07 00:40:27;;;;;;;29.88;21.67;;;12.50;99.90;;;;;;8344714;28;20029;-80
2022/08/07 00:44:28;;;;;;;53.40;29.67;;;12.40;99.90;;;;;;8342827;28;20024;-80
2022/08/07 00:48:29;;;;;;;77.25;39.00;;;12.40;99.90;;;;;;8340331;28;20060;-80
2022/08/07 00:52:30;;;;;;;84.28;41.50;;;12.50;99.90;;;;;;8340151;28;20496;-80
2022/08/07 00:56:30;;;;;;;63.42;34.88;;;12.50;99.90;;;;;;8352133;28;20017;-80
2022/08/07 01:00:31;;;;;;;55.85;34.08;;;12.80;99.90;;;;;;8338474;28;20028;-79
2022/08/07 01:04:32;;;;;;;74.63;38.28;;;12.70;99.90;;;;;;8335181;28;20485;-79
2022/08/07 01:08:33;;;;;;;65.35;37.10;;;12.80;99.90;;;;;;8345964;28;20041;-81
2022/08/07 01:12:35;;;;;;;77.35;38.60;;;12.80;99.90;;;;;;8329525;28;20049;-79
2022/08/07 01:16:36;;;;;;;62.65;36.25;;;12.80;99.90;;;;;;8344782;28;20022;-81
2022/08/07 01:20:44;;;;;;;68.03;38.28;;;13.10;99.90;;;;;;8332855;28;20123;-79
2022/08/07 01:24:45;;;;;;;74.32;39.20;;;13.00;99.90;;;;;;8339428;28;20116;-79
2022/08/07 01:28:50;;;;;;;67.75;37.33;;;12.90;99.90;;;;;;8352099;28;20435;-79
2022/08/07 01:32:50;;;;;;;66.15;38.25;;;13.00;99.90;;;;;;8345834;28;20028;-79
2022/08/07 01:36:51;;;;;;;78.47;40.70;;;12.90;99.90;;;;;;8342849;28;20021;-80
2022/08/07 01:40:55;;;;;;;78.35;41.25;;;12.90;99.90;;;;;;8345294;28;20496;-81
2022/08/07 01:44:56;;;;;;;66.97;38.50;;;12.90;99.90;;;;;;8341868;28;20025;-79
2022/08/07 01:48:57;;;;;;;78.20;41.08;;;13.10;99.90;;;;;;8347893;28;20043;-79
2022/08/07 01:53:00;;;;;;;81.07;40.67;;;13.00;99.90;;;;;;8336193;28;20036;-79
2022/08/07 01:57:15;;;;;;;71.38;38.92;;;13.00;99.90;;;;;;8331159;28;20401;-80
2022/08/07 02:01:26;;;;;;;72.00;38.47;;;13.10;99.90;;;;;;8339168;28;20538;-80
2022/08/07 02:05:34;;;;;;;79.68;39.17;;;12.90;99.90;;;;;;8342975;28;20030;-79
2022/08/07 02:09:35;;;;;;;85.05;41.42;;;13.00;99.90;;;;;;8339565;28;20039;-79
2022/08/07 02:13:37;;;;;;;63.47;34.95;;;12.90;99.90;;;;;;8334559;28;20021;-79
2022/08/07 02:17:41;;;;;;;68.68;39.30;;;13.20;99.90;;;;;;8333218;28;20029;-80
2022/08/07 02:21:42;;;;;;;75.50;40.88;;;13.30;99.90;;;;;;8346732;28;20029;-79
2022/08/07 02:25:44;;;;;;;80.75;41.92;;;13.20;99.90;;;;;;8333662;28;20469;-79
2022/08/07 02:29:45;;;;;;;94.82;44.13;;;13.20;99.90;;;;;;8334876;28;20496;-79
2022/08/07 02:33:48;;;;;;;70.35;40.38;;;13.10;99.90;;;;;;8332892;28;20025;-79
2022/08/07 02:37:49;;;;;;;67.07;38.83;;;13.40;99.90;;;;;;8347290;28;20028;-80
2022/08/07 02:41:51;;;;;;;74.75;39.78;;;13.50;99.90;;;;;;8326453;28;20086;-84
2022/08/07 02:45:53;;;;;;;73.97;40.38;;;13.50;99.90;;;;;;8357879;28;20394;-79
2022/08/07 02:49:53;;;;;;;67.63;39.63;;;13.50;99.90;;;;;;8339407;28;20508;-79
2022/08/07 02:53:56;;;;;;;77.05;41.15;;;13.60;99.90;;;;;;8334253;28;20065;-79
2022/08/07 02:58:01;;;;;;;73.63;40.33;;;13.50;99.90;;;;;;8346032;28;20044;-79
2022/08/07 03:02:03;;;;;;;75.60;41.72;;;13.60;99.90;;;;;;8341409;28;20052;-78
2022/08/07 03:06:03;;;;;;;80.28;44.55;;;13.50;99.90;;;;;;8333245;28;20029;-79
2022/08/07 03:10:05;;;;;;;76.25;42.47;;;13.70;99.90;;;;;;8333419;28;20033;-79
2022/08/07 03:14:06;;;;;;;70.97;41.58;;;13.90;99.90;;;;;;8337829;28;20401;-79
2022/08/07 03:18:07;;;;;;;70.55;41.28;;;14.00;99.90;;;;;;8338524;28;20061;-79
2022/08/07 03:22:08;;;;;;;80.00;42.63;;;14.10;99.90;;;;;;8332607;28;20488;-80
2022/08/07 03:26:12;;;;;;;75.57;44.83;;;14.10;99.90;;;;;;8338782;28;20026;-79
2022/08/07 03:30:14;;;;;;;72.32;42.30;;;14.30;99.90;;;;;;8334130;28;20037;-79
2022/08/07 03:34:16;;;;;;;74.55;43.00;;;14.30;99.90;;;;;;8350808;28;20112;-79
2022/08/07 03:38:19;;;;;;;71.18;40.33;;;14.30;99.90;;;;;;8354228;28;20028;-79
2022/08/07 03:42:20;;;;;;;70.90;40.28;;;14.30;99.90;;;;;;8328773;28;20108;-79
2022/08/07 03:46:22;;;;;;;78.43;41.72;;;14.40;99.90;;;;;;8347848;28;20022;-78
2022/08/07 03:50:24;;;;;;;62.88;37.53;;;14.30;99.90;;;;;;8338521;28;20116;-79
2022/08/07 03:54:24;;;;;;;61.75;37.80;;;14.40;99.90;;;;;;8346801;28;20030;-79
2022/08/07 03:58:25;;;;;;;62.60;36.65;;;14.50;99.90;;;;;;8346180;28;20554;-79
2022/08/07 04:02:26;;;;;;;63.00;38.55;;;14.40;99.90;;;;;;8336571;28;20021;-79
2022/08/07 04:06:27;;;;;;;62.58;36.08;;;14.30;99.90;;;;;;8331923;28;20021;-78
2022/08/07 04:10:28;;;;;;;56.38;33.33;;;14.40;99.90;;;;;;8360209;28;20047;-79
2022/08/07 04:14:28;;;;;;;51.05;32.70;;;14.50;99.90;;;;;;8351593;28;20029;-79
2022/08/07 04:18:29;;;;;;;54.80;33.95;;;14.40;99.90;;;;;;8331859;28;20590;-80
2022/08/07 04:22:30;;;;;;;56.00;32.72;;;14.30;99.90;;;;;;8342329;28;20031;-79
2022/08/07 04:26:30;;;;;;;55.40;35.55;;;14.30;99.90;;;;;;8337937;28;20021;-79
2022/08/07 04:30:33;;;;;;;50.92;33.85;;;14.30;99.90;;;;;;8335688;28;20026;-81
2022/08/07 04:34:34;;;;;;;54.72;35.05;;;14.30;99.90;;;;;;8346748;28;20085;-79
2022/08/07 04:38:36;;;;;;;47.83;31.33;;;14.40;99.90;;;;;;8363136;28;20076;-79
2022/08/07 04:42:36;;;;;;;51.92;33.97;;;14.40;99.90;;;;;;8341950;28;20033;-79
2022/08/07 04:47:04;;;;;;;44.47;30.38;;;14.50;99.90;;;;;;8343164;28;20232;-79
2022/08/07 04:51:09;;;;;;;48.70;32.92;;;14.40;99.90;;;;;;8340894;28;20389;-79
2022/08/07 04:55:24;;;;;;;54.00;33.53;;;14.50;99.90;;;;;;8335104;28;20030;-79
2022/08/07 04:59:42;;;;;;;44.00;29.85;;;14.40;99.90;;;;;;8342334;28;20516;-80
2022/08/07 05:04:09;;;;;;;46.45;31.77;;;14.50;99.90;;;;;;8332990;28;20031;-79
2022/08/07 05:08:31;;;;;;;42.97;29.45;;;14.50;99.90;;;;;;8328979;28;20089;-80
2022/08/07 05:12:47;;;;;;;43.60;28.17;;;14.70;99.90;;;;;;8340545;28;21277;-79
2022/08/07 05:16:50;;;;;;;38.50;27.77;;;14.90;99.90;;;;;;8344947;28;20016;-79
2022/08/07 05:20:55;;;;;;;36.25;26.23;;;15.00;99.90;;;;;;8343773;28;20022;-79
2022/08/07 05:24:58;;;;;;;34.60;24.83;;;15.00;99.90;;;;;;8350157;28;20439;-79
2022/08/07 05:29:01;;;;;;;34.28;24.85;;;15.30;99.90;;;;;;8342145;28;20069;-79
2022/08/07 05:33:04;;;;;;;29.55;21.58;;;15.50;99.90;;;;;;8336040;28;20052;-80
2022/08/07 05:37:06;;;;;;;29.45;21.83;;;15.60;99.90;;;;;;8335116;28;20045;-79
2022/08/07 05:41:08;;;;;;;23.23;18.67;;;15.70;99.90;;;;;;8353849;28;20033;-81
2022/08/07 05:45:09;;;;;;;25.13;17.17;;;15.70;99.90;;;;;;8359306;28;20064;-81
2022/08/07 05:49:10;;;;;;;23.52;18.88;;;15.70;99.90;;;;;;8328028;28;20121;-80
2022/08/07 05:53:11;;;;;;;25.75;19.40;;;15.70;99.90;;;;;;8336724;28;20469;-81
2022/08/07 05:57:14;;;;;;;21.25;17.30;;;16.00;99.90;;;;;;8336106;28;20095;-80
2022/08/07 06:01:17;;;;;;;17.25;15.00;;;16.60;99.90;;;;;;8319587;28;20469;-78
2022/08/07 06:05:20;;;;;;;16.30;13.18;;;16.80;99.90;;;;;;8324321;28;20036;-79
2022/08/07 06:09:21;;;;;;;15.93;12.25;;;17.10;99.90;;;;;;8319358;28;20179;-78
2022/08/07 06:13:22;;;;;;;18.98;11.18;;;17.40;99.90;;;;;;8344863;28;20030;-79
2022/08/07 06:17:25;;;;;;;14.05;11.07;;;17.70;99.90;;;;;;8325449;28;20074;-79
2022/08/07 06:21:26;;;;;;;11.57;9.70;;;17.90;99.90;;;;;;8332349;28;20033;-78
2022/08/07 06:25:27;;;;;;;11.25;10.07;;;18.20;99.90;;;;;;8326783;28;20469;-79
2022/08/07 06:29:28;;;;;;;14.25;9.82;;;18.70;99.90;;;;;;8330598;28;20037;-80
2022/08/07 06:33:29;;;;;;;11.95;9.35;;;18.80;99.90;;;;;;8329513;28;20032;-79
2022/08/07 06:37:29;;;;;;;11.07;9.35;;;18.50;99.90;;;;;;8331370;28;20400;-79
2022/08/07 06:41:46;;;;;;;9.57;8.65;;;18.60;99.90;;;;;;8325272;28;20026;-79
2022/08/07 06:45:47;;;;;;;10.77;7.85;;;18.60;99.90;;;;;;8321621;28;20037;-79
2022/08/07 06:49:48;;;;;;;9.52;6.88;;;19.00;99.90;;;;;;8325149;28;20025;-80
2022/08/07 06:53:49;;;;;;;7.07;6.20;;;19.10;99.90;;;;;;8325371;28;20017;-80
2022/08/07 06:57:51;;;;;;;6.22;5.57;;;19.30;99.90;;;;;;8321643;28;20025;-80
2022/08/07 07:01:52;;;;;;;5.97;5.13;;;19.50;99.90;;;;;;8329127;28;20029;-81
2022/08/07 07:05:53;;;;;;;5.75;4.88;;;19.80;99.90;;;;;;8325136;28;20493;-80
2022/08/07 07:09:54;;;;;;;5.03;4.55;;;19.80;99.90;;;;;;8342380;28;20040;-80
2022/08/07 07:13:56;;;;;;;6.70;4.53;;;19.60;99.90;;;;;;8329162;28;20042;-81
2022/08/07 07:18:20;;;;;;;4.63;3.75;;;19.90;99.90;;;;;;8331773;28;20025;-81
2022/08/07 07:22:23;;;;;;;3.80;3.47;;;20.80;99.90;;;;;;8326005;28;20030;-80
2022/08/07 07:26:27;;;;;;;4.07;3.65;;;21.00;99.90;;;;;;8341714;28;20504;-82
2022/08/07 07:30:36;;;;;;;5.65;3.85;;;20.10;99.90;;;;;;8346941;28;20397;-81
2022/08/07 07:34:43;;;;;;;4.90;3.75;;;19.50;99.90;;;;;;8340588;28;20017;-81
2022/08/07 07:38:44;;;;;;;4.72;3.58;;;19.70;99.90;;;;;;8334911;28;20112;-81
2022/08/07 07:42:50;;;;;;;4.70;2.97;;;19.70;99.90;;;;;;8355011;28;20471;-81
2022/08/07 07:46:52;;;;;;;3.33;3.03;;;19.90;99.90;;;;;;8335078;28;20095;-81
2022/08/07 07:50:54;;;;;;;5.68;3.85;;;20.00;99.90;;;;;;8328668;28;20437;-81
2022/08/07 07:54:55;;;;;;;6.85;2.97;;;20.00;99.90;;;;;;8328243;28;20417;-82
2022/08/07 07:58:58;;;;;;;4.05;2.95;;;20.00;99.90;;;;;;8348166;28;20049;-82
2022/08/07 08:03:10;;;;;;;4.32;2.70;;;20.00;99.90;;;;;;8332142;28;20030;-80
2022/08/07 08:07:11;;;;;;;3.40;3.10;;;20.00;99.90;;;;;;8327177;28;20116;-81
2022/08/07 08:11:12;;;;;;;3.05;2.75;;;19.90;99.90;;;;;;8339684;28;20029;-82
2022/08/07 08:15:13;;;;;;;4.93;3.00;;;20.20;99.90;;;;;;8345439;28;20025;-81
2022/08/07 08:19:18;;;;;;;4.25;2.60;;;20.40;99.90;;;;;;8332923;28;20080;-81
2022/08/07 08:27:42;;;;;;;5.93;2.42;;;20.80;99.90;;;;;;8341159;28;20059;-82
2022/08/07 08:31:44;;;;;;;4.25;2.80;;;21.20;99.90;;;;;;8333074;28;20052;-81
2022/08/07 08:35:48;;;;;;;5.50;2.53;;;21.60;99.90;;;;;;8330052;28;20465;-79
2022/08/07 08:39:51;;;;;;;3.42;2.53;;;21.70;99.90;;;;;;8326400;28;20032;-80
2022/08/07 08:44:17;;;;;;;3.45;2.45;;;21.60;99.90;;;;;;8318496;22;20051;-85
2022/08/07 08:48:42;;;;;;;5.22;2.60;;;21.30;99.90;;;;;;8248992;28;20503;-85
2022/08/07 08:53:01;;;;;;;2.47;2.05;;;21.50;99.90;;;;;;8205551;28;20285;-85
2022/08/07 08:57:09;;;;;;;4.10;2.33;;;22.00;99.90;;;;;;8191991;28;20022;-85
2022/08/07 09:01:23;;;;;;;3.83;2.38;;;22.00;99.90;;;;;;8214041;28;20042;-89
2022/08/07 09:05:39;;;;;;;2.42;2.00;;;21.60;99.90;;;;;;8255221;28;20093;-87
2022/08/07 09:09:43;;;;;;;2.80;2.08;;;22.10;99.90;;;;;;8169215;28;20020;-86
2022/08/07 09:14:02;;;;;;;1.75;1.60;;;22.30;99.90;;;;;;8218306;28;20020;-89
2022/08/07 09:18:18;;;;;;;4.43;1.80;;;22.60;99.90;;;;;;8203429;28;20082;-80
2022/08/07 09:22:43;;;;;;;2.03;1.83;;;23.30;99.90;;;;;;8186987;28;20119;-78
2022/08/07 09:27:19;;;;;;;1.70;1.60;;;23.90;99.90;;;;;;8197032;28;20035;-80
2022/08/07 09:31:40;;;;;;;1.88;1.55;;;23.80;99.90;;;;;;8189096;28;20090;-79
2022/08/07 09:36:26;;;;;;;1.70;1.60;;;23.20;99.90;;;;;;8238382;28;20030;-80
2022/08/07 09:40:39;;;;;;;2.08;1.55;;;23.10;99.90;;;;;;8244053;28;20499;-80
2022/08/07 09:45:11;;;;;;;2.13;1.77;;;23.90;99.90;;;;;;8238996;28;20119;-79
2022/08/07 09:49:27;;;;;;;2.65;1.60;;;24.30;99.90;;;;;;8222258;28;20033;-79
2022/08/07 09:53:33;;;;;;;2.47;1.55;;;24.70;99.90;;;;;;8255588;28;20021;-79
2022/08/07 09:58:01;;;;;;;2.33;1.50;;;24.30;99.90;;;;;;8198911;28;20109;-79
2022/08/07 10:02:37;;;;;;;2.88;1.60;;;24.10;99.90;;;;;;8225980;28;20035;-80
2022/08/07 10:06:57;;;;;;;5.55;1.60;;;23.20;99.90;;;;;;8199058;28;20040;-80
2022/08/07 10:11:48;;;;;;;2.33;1.90;;;23.20;99.90;;;;;;8181079;28;20035;-79
2022/08/07 10:16:03;;;;;;;1.85;1.38;;;23.20;99.90;;;;;;8210499;28;20040;-80
2022/08/07 10:20:09;;;;;;;1.90;1.73;;;23.60;99.90;;;;;;8203914;28;20036;-79
2022/08/07 10:24:44;;;;;;;3.00;1.63;;;22.90;99.90;;;;;;8164274;28;20030;-80
2022/08/07 10:29:06;;;;;;;7.03;2.28;;;22.30;99.90;;;;;;8181414;28;20046;-79
2022/08/07 10:33:07;;;;;;;4.47;2.08;;;22.10;99.90;;;;;;8283177;28;20032;-80
2022/08/07 10:37:34;;;;;;;2.67;2.00;;;22.00;99.90;;;;;;8170582;28;20052;-80
2022/08/07 10:41:40;;;;;;;3.55;2.00;;;22.80;99.90;;;;;;8184899;28;20518;-79
2022/08/07 10:45:48;;;;;;;2.88;1.98;;;24.00;99.90;;;;;;8190008;28;20060;-81
2022/08/07 10:50:04;;;;;;;3.15;2.13;;;25.40;99.90;;;;;;8207091;28;20672;-80
2022/08/07 10:54:15;;;;;;;4.38;1.90;;;25.30;99.90;;;;;;8177976;28;20451;-80
2022/08/07 10:58:43;;;;;;;3.83;2.38;;;25.60;99.90;;;;;;8195799;28;20484;-80
2022/08/07 11:03:09;;;;;;;2.50;2.30;;;25.10;99.90;;;;;;8204739;28;20106;-79
2022/08/07 11:07:49;;;;;;;3.17;2.00;;;25.10;99.90;;;;;;8284092;28;20021;-80
2022/08/07 11:12:00;;;;;;;3.13;1.67;;;25.10;99.90;;;;;;8203497;28;20021;-81
2022/08/07 11:16:29;;;;;;;2.97;1.85;;;27.00;99.90;;;;;;8270044;28;20025;-80
2022/08/07 11:20:47;;;;;;;2.10;1.90;;;27.20;99.90;;;;;;8200779;28;20039;-79
2022/08/07 11:24:50;;;;;;;4.32;2.10;;;26.30;99.90;;;;;;8189212;28;20036;-79
2022/08/07 11:29:00;;;;;;;2.70;2.05;;;26.00;99.90;;;;;;8266847;28;20024;-80
2022/08/07 11:33:09;;;;;;;2.93;1.53;;;25.10;99.90;;;;;;8201917;28;20029;-79
2022/08/07 11:37:33;;;;;;;2.70;1.73;;;26.10;99.90;;;;;;8310407;28;20079;-80
2022/08/07 11:41:43;;;;;;;3.70;1.60;;;28.60;99.90;;;;;;8170310;28;20035;-78
2022/08/07 11:46:13;;;;;;;2.20;1.58;;;27.90;99.40;;;;;;8232066;28;20029;-80
2022/08/07 11:50:37;;;;;;;2.20;1.80;;;27.90;94.20;;;;;;8268824;28;20501;-80
2022/08/07 11:55:00;;;;;;;2.03;1.45;;;27.20;96.00;;;;;;8241293;28;20150;-78
2022/08/07 11:59:19;;;;;;;2.50;1.45;;;27.20;94.80;;;;;;8193814;28;20630;-81
2022/08/07 12:03:25;;;;;;;2.80;1.52;;;27.70;92.90;;;;;;8170368;28;20423;-80
2022/08/07 12:07:35;;;;;;;2.17;1.50;;;28.40;91.50;;;;;;8256090;28;20028;-80
2022/08/07 12:11:46;;;;;;;4.70;1.67;;;28.90;91.10;;;;;;8230627;28;20035;-79
2022/08/07 12:15:52;;;;;;;4.30;1.70;;;28.00;91.30;;;;;;8193385;28;20073;-80
2022/08/07 12:20:06;;;;;;;2.50;1.80;;;28.00;94.60;;;;;;8186775;28;20031;-80
2022/08/07 12:24:16;;;;;;;2.00;1.35;;;28.20;90.20;;;;;;8183461;28;20055;-80
2022/08/07 12:28:26;;;;;;;1.75;1.65;;;27.30;93.70;;;;;;8186479;28;20125;-80
2022/08/07 12:32:36;;;;;;;3.95;1.48;;;27.30;96.20;;;;;;8233552;28;20029;-81
2022/08/07 12:36:39;;;;;;;2.20;1.63;;;28.70;91.10;;;;;;8247785;28;20097;-80
2022/08/07 12:40:42;;;;;;;1.70;1.52;;;30.30;87.20;;;;;;8206042;28;20028;-80
2022/08/07 12:44:46;;;;;;;1.70;1.60;;;28.70;88.80;;;;;;8208821;28;20417;-80
2022/08/07 12:49:15;;;;;;;1.52;1.27;;;28.80;90.00;;;;;;8258284;28;20039;-79
2022/08/07 12:53:16;;;;;;;1.80;1.70;;;30.80;78.10;;;;;;8274919;28;20030;-80
2022/08/07 12:57:19;;;;;;;1.98;1.35;;;30.80;77.50;;;;;;8246121;28;20039;-80
2022/08/07 13:01:25;;;;;;;1.88;1.48;;;29.20;86.70;;;;;;8252858;28;20276;-80
2022/08/07 13:05:50;;;;;;;3.20;1.45;;;28.80;84.50;;;;;;8213379;28;20075;-80
2022/08/07 13:10:19;;;;;;;3.38;1.60;;;28.40;78.40;;;;;;8212704;28;20029;-80
2022/08/07 13:14:57;;;;;;;1.80;1.27;;;29.20;80.20;;;;;;8197290;28;20032;-80
2022/08/07 13:19:25;;;;;;;3.90;1.30;;;29.20;83.60;;;;;;8202561;28;20106;-80
2022/08/07 13:23:37;;;;;;;2.22;1.50;;;27.60;86.30;;;;;;8208293;28;20021;-80
2022/08/07 13:27:49;;;;;;;1.77;1.40;;;29.40;81.20;;;;;;8160029;28;20392;-80
2022/08/07 13:31:57;;;;;;;2.92;1.40;;;31.20;72.10;;;;;;8192484;28;20384;-80
2022/08/07 13:36:08;;;;;;;1.35;1.15;;;31.40;72.70;;;;;;8183915;28;20441;-80
2022/08/07 13:40:12;;;;;;;1.73;1.30;;;29.80;70.60;;;;;;8221013;28;20032;-80
2022/08/07 13:44:18;;;;;;;4.43;1.60;;;28.80;72.60;;;;;;8195987;28;20036;-80
2022/08/07 13:48:21;;;;;;;1.90;1.30;;;28.00;82.80;;;;;;8182969;28;20052;-79
2022/08/07 13:52:22;;;;;;;1.77;1.45;;;26.20;83.30;;;;;;8236656;28;20029;-80
2022/08/07 13:56:25;;;;;;;1.40;1.25;;;25.60;89.90;;;;;;8159588;28;20106;-80
2022/08/07 14:00:36;;;;;;;2.17;1.42;;;26.20;81.30;;;;;;8206798;28;20032;-79
2022/08/07 14:04:43;;;;;;;2.47;1.55;;;26.50;90.00;;;;;;8159493;28;20036;-80
2022/08/07 14:08:47;;;;;;;3.53;1.50;;;27.10;79.90;;;;;;8207529;28;20021;-80
2022/08/07 14:12:57;;;;;;;1.25;1.08;;;26.40;85.20;;;;;;8197394;28;20035;-78
2022/08/07 14:17:00;;;;;;;1.45;1.35;;;26.10;89.20;;;;;;8225234;28;20031;-79
2022/08/07 14:21:24;;;;;;;1.65;1.45;;;25.10;86.10;;;;;;8230088;28;20032;-80
2022/08/07 14:25:29;;;;;;;2.65;1.20;;;25.90;87.40;;;;;;8185475;28;20033;-80
2022/08/07 14:29:34;;;;;;;1.52;1.42;;;27.10;86.60;;;;;;8245420;28;20577;-80
2022/08/07 14:33:36;;;;;;;1.67;1.50;;;27.10;86.50;;;;;;8233486;28;20080;-79
2022/08/07 14:37:37;;;;;;;2.17;1.58;;;26.80;89.80;;;;;;8246099;28;20020;-79
2022/08/07 14:41:40;;;;;;;2.42;1.58;;;27.40;88.10;;;;;;8232264;28;20083;-79
2022/08/07 14:45:53;;;;;;;3.03;1.67;;;27.80;83.40;;;;;;8247676;28;20025;-79
2022/08/07 14:49:55;;;;;;;1.63;1.20;;;26.90;88.40;;;;;;8191154;28;20068;-79
2022/08/07 14:53:59;;;;;;;1.83;1.45;;;27.60;86.40;;;;;;8243335;28;20071;-80
2022/08/07 14:58:01;;;;;;;2.58;1.30;;;28.10;83.30;;;;;;8250763;28;20030;-80
2022/08/07 15:02:14;;;;;;;2.35;1.45;;;28.50;84.40;;;;;;8235907;28;20055;-80
2022/08/07 15:06:22;;;;;;;2.08;1.50;;;30.60;74.30;;;;;;8216040;28;20454;-81
2022/08/07 15:10:27;;;;;;;2.05;1.63;;;32.10;73.40;;;;;;8249138;28;20386;-80
2022/08/07 15:14:31;;;;;;;2.70;1.60;;;31.20;71.10;;;;;;8209723;28;20623;-81
2022/08/07 15:18:43;;;;;;;1.60;1.40;;;32.60;70.30;;;;;;8238762;28;20034;-80
2022/08/07 15:22:49;;;;;;;3.75;2.30;;;33.80;62.80;;;;;;8178540;28;20603;-80
2022/08/07 15:26:55;;;;;;;1.85;1.20;;;34.00;58.70;;;;;;8218467;28;20031;-80
2022/08/07 15:31:01;;;;;;;1.45;1.30;;;34.50;60.20;;;;;;8219914;28;20450;-80
2022/08/07 15:35:03;;;;;;;1.83;1.40;;;32.20;61.70;;;;;;8248919;28;20105;-79
2022/08/07 15:39:07;;;;;;;2.05;1.60;;;31.40;66.60;;;;;;8185799;28;20046;-80
2022/08/07 15:43:10;;;;;;;1.80;1.60;;;28.60;73.20;;;;;;8205150;28;20389;-80
2022/08/07 15:47:13;;;;;;;1.63;1.50;;;27.50;75.50;;;;;;8216322;28;20103;-80
2022/08/07 15:51:15;;;;;;;2.53;1.42;;;26.80;74.30;;;;;;8208348;28;20073;-80
2022/08/07 15:55:19;;;;;;;1.98;1.30;;;26.20;80.20;;;;;;8180835;28;20028;-80
2022/08/07 15:59:25;;;;;;;1.65;1.52;;;25.80;81.70;;;;;;8165512;28;20062;-79
2022/08/07 16:03:31;;;;;;;1.80;1.60;;;25.50;89.50;;;;;;8211691;28;20538;-80
2022/08/07 16:07:41;;;;;;;1.63;1.52;;;24.70;88.50;;;;;;8204526;28;20020;-79
2022/08/07 16:12:09;;;;;;;3.17;1.45;;;24.50;90.10;;;;;;8236729;28;20041;-81
2022/08/07 16:16:28;;;;;;;1.20;1.10;;;24.30;90.50;;;;;;8301850;28;20042;-79
2022/08/07 16:20:41;;;;;;;3.08;1.35;;;24.20;90.20;;;;;;8229074;28;20032;-79
2022/08/07 16:25:10;;;;;;;2.50;1.60;;;23.80;90.00;;;;;;8245947;28;20024;-80
2022/08/07 16:29:43;;;;;;;2.50;1.40;;;23.60;92.50;;;;;;8242638;28;20024;-79
2022/08/07 16:33:45;;;;;;;1.75;1.30;;;23.50;92.00;;;;;;8236870;28;20028;-81
2022/08/07 16:38:26;;;;;;;1.65;1.40;;;23.70;90.40;;;;;;8188496;28;20026;-80
2022/08/07 16:42:37;;;;;;;1.83;1.42;;;24.00;90.00;;;;;;8190047;28;20461;-80
2022/08/07 16:47:09;;;;;;;2.25;1.23;;;24.20;89.70;;;;;;8287642;28;20093;-79
2022/08/07 16:51:29;;;;;;;2.83;1.50;;;23.80;91.00;;;;;;8244748;28;20036;-80
2022/08/07 16:55:38;;;;;;;3.63;1.60;;;23.60;91.60;;;;;;8247693;28;20533;-80
2022/08/07 17:00:05;;;;;;;2.43;1.33;;;23.60;91.30;;;;;;8201358;28;20017;-80
2022/08/07 17:04:33;;;;;;;1.90;1.50;;;23.90;91.10;;;;;;8211933;28;20461;-81
2022/08/07 17:08:46;;;;;;;2.88;1.67;;;23.70;91.80;;;;;;8206746;28;20030;-80
2022/08/07 17:13:00;;;;;;;2.90;1.95;;;23.50;93.80;;;;;;8181891;28;20024;-80
2022/08/07 17:17:07;;;;;;;3.05;1.70;;;23.40;93.10;;;;;;8179569;28;20039;-80
2022/08/07 17:21:23;;;;;;;1.52;1.33;;;23.20;92.80;;;;;;8229198;28;20072;-80
2022/08/07 17:25:33;;;;;;;3.30;1.50;;;23.00;93.60;;;;;;8196063;28;20030;-80
2022/08/07 17:29:36;;;;;;;3.65;1.63;;;22.80;94.00;;;;;;8211226;28;20029;-79
2022/08/07 17:33:43;;;;;;;4.72;1.58;;;22.60;94.20;;;;;;8201583;28;20584;-80
2022/08/07 17:38:00;;;;;;;2.42;1.65;;;22.50;92.90;;;;;;8243904;28;20029;-80
2022/08/07 17:42:04;;;;;;;2.15;1.65;;;22.40;93.80;;;;;;8220780;28;20393;-80
2022/08/07 17:46:28;;;;;;;1.73;1.55;;;22.30;94.40;;;;;;8172577;28;20078;-80
2022/08/07 17:50:43;;;;;;;2.17;1.60;;;22.20;94.90;;;;;;8181866;28;20112;-79
2022/08/07 17:54:52;;;;;;;2.50;1.60;;;22.20;94.60;;;;;;8178827;28;20032;-80
2022/08/07 17:58:55;;;;;;;3.58;2.80;;;22.00;94.10;;;;;;8169424;28;20625;-80
2022/08/07 18:03:10;;;;;;;1.90;1.50;;;22.00;94.80;;;;;;8206530;28;20453;-80
2022/08/07 18:07:22;;;;;;;2.03;1.58;;;21.70;96.10;;;;;;8195129;28;20028;-79
2022/08/07 18:11:54;;;;;;;1.70;1.60;;;21.50;97.20;;;;;;8252169;28;20495;-79
2022/08/07 18:16:46;;;;;;;4.10;1.60;;;21.30;98.20;;;;;;8251820;28;20045;-81
2022/08/07 18:21:01;;;;;;;1.67;1.58;;;21.00;99.90;;;;;;8241284;28;20026;-80
2022/08/07 18:25:04;;;;;;;2.53;2.05;;;20.70;99.90;;;;;;8185410;28;20040;-80
2022/08/07 18:29:27;;;;;;;3.33;2.50;;;20.60;99.90;;;;;;8181823;28;20031;-80
2022/08/07 18:33:42;;;;;;;3.38;2.25;;;20.30;99.90;;;;;;8185425;28;20043;-80
2022/08/07 18:38:25;;;;;;;3.53;2.13;;;20.00;99.90;;;;;;8225269;28;20039;-80
2022/08/07 18:42:48;;;;;;;3.00;1.88;;;19.80;99.90;;;;;;8207181;28;20071;-80
2022/08/07 18:47:07;;;;;;;5.75;2.08;;;19.70;99.90;;;;;;8206387;28;20115;-80
2022/08/07 18:51:35;;;;;;;2.45;1.60;;;19.70;99.90;;;;;;8187453;28;20027;-80
2022/08/07 18:56:01;;;;;;;2.88;1.73;;;19.40;99.90;;;;;;8189050;28;20114;-79
2022/08/07 19:00:13;;;;;;;3.17;1.85;;;19.00;99.90;;;;;;8180600;28;20032;-78
2022/08/07 19:04:29;;;;;;;2.85;2.00;;;18.70;99.90;;;;;;8178466;28;20042;-79
2022/08/07 19:08:54;;;;;;;3.33;2.13;;;18.40;99.90;;;;;;8191675;28;20014;-79
2022/08/07 19:13:25;;;;;;;2.22;2.03;;;18.20;99.90;;;;;;8179968;28;20036;-79
2022/08/07 19:17:54;;;;;;;3.25;2.30;;;17.90;99.90;;;;;;8168113;28;20505;-79
2022/08/07 19:22:18;;;;;;;2.65;2.28;;;17.70;99.90;;;;;;8189922;28;20131;-79
2022/08/07 19:26:24;;;;;;;2.25;2.05;;;17.60;99.90;;;;;;8187445;28;20028;-78
2022/08/07 19:30:30;;;;;;;2.70;2.35;;;17.70;99.90;;;;;;8200689;28;20036;-79
2022/08/07 19:34:31;;;;;;;2.83;2.40;;;17.60;99.90;;;;;;8182675;28;20436;-78
2022/08/07 19:38:37;;;;;;;5.68;2.45;;;17.30;99.90;;;;;;8216757;28;20174;-79
2022/08/07 19:42:42;;;;;;;3.00;2.70;;;17.10;99.90;;;;;;8238989;28;20021;-79
2022/08/07 19:46:48;;;;;;;3.17;2.22;;;17.10;99.90;;;;;;8246303;28;20492;-78
2022/08/07 19:50:48;;;;;;;3.78;2.35;;;17.20;99.90;;;;;;8171637;28;20028;-80
2022/08/07 19:54:49;;;;;;;3.55;2.70;;;17.10;99.90;;;;;;8195424;28;20043;-79
2022/08/07 19:58:51;;;;;;;2.95;2.60;;;16.90;99.90;;;;;;8219482;28;20032;-79
2022/08/07 20:03:04;;;;;;;5.30;2.67;;;16.60;99.90;;;;;;8183371;28;20032;-78
2022/08/07 20:07:08;;;;;;;3.63;2.92;;;16.50;99.90;;;;;;8166868;28;20462;-79
2022/08/07 20:11:11;;;;;;;7.25;2.58;;;16.50;99.90;;;;;;8170905;28;20060;-79
2022/08/07 20:15:18;;;;;;;2.95;2.65;;;16.20;99.90;;;;;;8230240;28;20403;-79
2022/08/07 20:19:22;;;;;;;4.45;2.80;;;15.90;99.90;;;;;;8170329;28;20510;-79
2022/08/07 20:23:24;;;;;;;3.03;2.75;;;15.70;99.90;;;;;;8233028;28;20517;-79
2022/08/07 20:27:26;;;;;;;4.15;3.10;;;15.60;99.90;;;;;;8275205;28;20372;-79
2022/08/07 20:31:29;;;;;;;3.33;3.03;;;15.50;99.90;;;;;;8182483;28;20646;-79
2022/08/07 20:35:33;;;;;;;3.58;3.28;;;15.40;99.90;;;;;;8216409;28;20503;-79
2022/08/07 20:39:37;;;;;;;5.05;3.78;;;15.20;99.90;;;;;;8188778;28;20487;-78
2022/08/07 20:43:39;;;;;;;4.30;3.90;;;15.20;99.90;;;;;;8186032;28;20014;-79
2022/08/07 20:47:44;;;;;;;4.18;3.50;;;15.10;99.90;;;;;;8188100;28;20023;-78
2022/08/07 20:51:45;;;;;;;4.95;3.92;;;15.10;99.90;;;;;;8227011;28;20492;-79
2022/08/07 20:55:48;;;;;;;6.63;4.55;;;15.20;99.90;;;;;;8201958;28;20037;-78
2022/08/07 20:59:50;;;;;;;4.95;4.53;;;15.00;99.90;;;;;;8187264;28;20032;-78
2022/08/07 21:03:55;;;;;;;5.95;5.13;;;14.90;99.90;;;;;;8177822;28;20031;-78
2022/08/07 21:07:58;;;;;;;5.38;4.88;;;14.80;99.90;;;;;;8175200;28;20028;-79
2022/08/07 21:12:02;;;;;;;6.38;5.50;;;14.60;99.90;;;;;;8174761;28;20032;-78
2022/08/07 21:16:05;;;;;;;6.45;5.55;;;14.50;99.90;;;;;;8239378;28;20503;-78
2022/08/07 21:20:09;;;;;;;6.07;5.43;;;14.60;99.90;;;;;;8198793;28;20116;-78
2022/08/07 21:24:35;;;;;;;5.68;5.07;;;14.40;99.90;;;;;;8232343;28;20024;-78
2022/08/07 21:28:55;;;;;;;5.40;4.90;;;14.50;99.90;;;;;;8226833;28;20040;-76